Time;durP1;ratioP1;P1;durP2;ratioP2;P2;SDS_P1;SDS_P2;PMS_P1;PMS_P2;Temp;Humidity;BMP_temperature;BMP_pressure;BME280_temperature;BME280_humidity;BME280_pressure;Samples;Min_cycle;Max_cycle;Signal;HPM_P1;HPM_P2
2022/05/04 00:01:56;;;;;;;6.93;3.60;;;;;;;10.47;60.28;100710.15;1816929;79;21004;-74
2022/05/04 00:04:23;;;;;;;5.83;3.60;;;;;;;10.48;60.46;100709.23;1816873;79;22485;-79
2022/05/04 00:06:50;;;;;;;5.20;3.70;;;;;;;10.49;60.53;100705.69;1817126;79;21012;-75
2022/05/04 00:09:17;;;;;;;6.87;3.23;;;;;;;10.49;60.61;100708.31;1816722;79;21443;-74
2022/05/04 00:11:44;;;;;;;6.33;3.60;;;;;;;10.48;60.39;100705.30;1817086;79;21009;-75
2022/05/04 00:14:11;;;;;;;5.67;3.43;;;;;;;10.48;60.63;100708.37;1816625;79;20996;-75
2022/05/04 00:16:38;;;;;;;6.90;3.77;;;;;;;10.48;60.75;100712.31;1817054;79;20984;-75
2022/05/04 00:19:05;;;;;;;6.00;3.60;;;;;;;10.48;60.87;100713.62;1816754;79;21023;-75
2022/05/04 00:21:32;;;;;;;9.20;3.90;;;;;;;10.48;60.84;100710.55;1816994;79;21446;-74
2022/05/04 00:23:59;;;;;;;6.90;4.30;;;;;;;10.48;61.10;100711.85;1817076;79;21188;-75
2022/05/04 00:26:26;;;;;;;10.00;4.13;;;;;;;10.48;61.11;100708.37;1816670;79;21499;-74
2022/05/04 00:28:53;;;;;;;7.17;3.70;;;;;;;10.48;61.11;100711.85;1816923;79;21478;-75
2022/05/04 00:31:20;;;;;;;5.87;4.00;;;;;;;10.47;61.13;100707.95;1816719;79;20973;-74
2022/05/04 00:33:47;;;;;;;6.20;3.63;;;;;;;10.46;61.13;100709.72;1817147;79;21098;-75
2022/05/04 00:36:14;;;;;;;6.20;3.50;;;;;;;10.46;61.14;100714.97;1816767;79;21957;-75
2022/05/04 00:38:41;;;;;;;4.90;3.90;;;;;;;10.45;61.16;100713.27;1816898;79;21008;-74
2022/05/04 00:41:08;;;;;;;5.03;3.50;;;;;;;10.43;61.23;100711.59;1816316;79;20992;-75
2022/05/04 00:43:35;;;;;;;6.27;3.53;;;;;;;10.41;61.33;100715.56;1816138;78;21266;-80
2022/05/04 00:46:03;;;;;;;5.20;3.80;;;;;;;10.36;61.59;100716.14;1816224;79;21000;-74
2022/05/04 00:48:30;;;;;;;6.70;4.27;;;;;;;10.30;61.81;100707.17;1816239;79;21116;-76
2022/05/04 00:50:57;;;;;;;5.70;3.90;;;;;;;10.23;61.86;100711.73;1816047;79;20980;-75
2022/05/04 00:53:24;;;;;;;6.20;4.20;;;;;;;10.17;61.95;100709.72;1816462;78;20955;-75
2022/05/04 00:55:54;;;;;;;6.53;3.50;;;;;;;10.09;61.93;100712.60;1816030;79;21652;-75
2022/05/04 01:01:07;;;;;;;7.33;4.00;;;;;;;10.01;62.45;100718.06;1804067;79;21054;-79
2022/05/04 01:03:33;;;;;;;6.77;4.00;;;;;;;9.99;62.75;100724.24;1815940;79;22126;-77
2022/05/04 01:06:00;;;;;;;6.67;4.40;;;;;;;9.96;62.87;100723.88;1802087;79;20997;-79
2022/05/04 01:08:27;;;;;;;7.57;4.37;;;;;;;9.94;63.04;100726.98;1813378;79;21028;-80
2022/05/04 01:10:55;;;;;;;6.90;4.40;;;;;;;9.94;63.30;100728.75;1815810;79;21027;-76
2022/05/04 01:13:22;;;;;;;5.83;4.17;;;;;;;9.93;63.35;100728.36;1807763;79;21106;-77
2022/05/04 01:15:49;;;;;;;6.00;4.17;;;;;;;9.92;63.40;100737.98;1796828;78;20961;-79
2022/05/04 01:18:17;;;;;;;6.60;4.50;;;;;;;9.92;63.49;100735.36;1816219;79;20985;-75
2022/05/04 01:20:44;;;;;;;8.10;4.37;;;;;;;9.93;63.57;100734.45;1816062;79;21009;-76
2022/05/04 01:23:11;;;;;;;7.93;4.93;;;;;;;9.92;63.53;100730.55;1815635;79;21157;-79
2022/05/04 01:25:38;;;;;;;9.03;5.23;;;;;;;9.92;63.59;100735.78;1816155;78;21939;-74
2022/05/04 01:28:05;;;;;;;8.57;4.77;;;;;;;9.93;63.65;100732.28;1816107;79;21513;-75
2022/05/04 01:30:35;;;;;;;6.70;4.70;;;;;;;9.95;63.92;100739.20;1816073;79;20992;-76
2022/05/04 01:33:04;;;;;;;6.03;4.47;;;;;;;9.96;64.19;100743.52;1816100;79;21004;-76
2022/05/04 01:35:32;;;;;;;7.40;4.70;;;;;;;9.99;64.36;100742.58;1816312;79;39646;-75
2022/05/04 01:37:59;;;;;;;7.90;5.00;;;;;;;10.03;64.35;100741.14;1816102;79;21940;-75
2022/05/04 01:40:26;;;;;;;7.27;4.80;;;;;;;10.09;64.30;100736.59;1816086;79;21066;-74
2022/05/04 01:42:53;;;;;;;6.70;4.67;;;;;;;10.14;64.17;100730.35;1816042;79;20959;-78
2022/05/04 01:45:20;;;;;;;9.20;5.13;;;;;;;10.19;64.04;100731.05;1816095;78;21015;-75
2022/05/04 01:47:48;;;;;;;8.07;4.73;;;;;;;10.25;63.94;100732.19;1816059;78;20993;-74
2022/05/04 01:50:16;;;;;;;8.10;5.37;;;;;;;10.31;63.92;100728.56;1816159;78;21180;-75
2022/05/04 01:52:43;;;;;;;8.50;4.60;;;;;;;10.37;63.90;100730.13;1816190;79;21441;-76
2022/05/04 01:55:10;;;;;;;7.67;4.77;;;;;;;10.39;63.80;100727.88;1816377;79;21494;-75
2022/05/04 01:57:37;;;;;;;6.27;4.80;;;;;;;10.39;63.82;100729.61;1816000;78;20992;-74
2022/05/04 02:00:07;;;;;;;8.53;4.70;;;;;;;10.40;63.89;100736.59;1816428;79;21080;-74
2022/05/04 02:02:36;;;;;;;6.40;4.83;;;;;;;10.38;63.92;100734.00;1814799;79;21126;-74
2022/05/04 02:05:05;;;;;;;8.57;5.17;;;;;;;10.37;64.07;100730.98;1816456;78;21067;-74
2022/05/04 02:07:37;;;;;;;7.67;4.90;;;;;;;10.38;64.30;100727.91;1816061;79;20980;-74
2022/05/04 02:10:06;;;;;;;10.93;5.00;;;;;;;10.37;64.34;100730.98;1816398;79;21079;-74
2022/05/04 02:12:36;;;;;;;8.40;4.93;;;;;;;10.37;64.48;100728.82;1816186;79;20992;-74
2022/05/04 02:15:04;;;;;;;;;;;;;;;10.36;64.53;100731.02;1819217;79;21768;-74
2022/05/04 02:17:31;;;;;;;7.40;5.07;;;;;;;10.33;64.90;100724.11;1815992;79;20181;-77
2022/05/04 02:19:59;;;;;;;7.67;5.17;;;;;;;10.31;64.54;100729.88;1816337;79;20949;-74
2022/05/04 02:22:26;;;;;;;6.67;4.60;;;;;;;10.30;64.67;100729.91;1816099;79;21012;-74
2022/05/04 02:24:53;;;;;;;10.17;4.80;;;;;;;10.28;64.57;100735.17;1816447;79;21105;-79
2022/05/04 02:27:20;;;;;;;7.23;5.23;;;;;;;10.27;64.77;100732.16;1816207;79;21765;-75
2022/05/04 02:29:47;;;;;;;6.37;4.73;;;;;;;10.27;64.41;100738.71;1815983;79;20905;-74
2022/05/04 02:32:14;;;;;;;6.47;4.77;;;;;;;10.28;64.50;100739.11;1816383;79;20988;-78
2022/05/04 02:40:12;;;;;;;8.43;4.93;;;;;;;10.37;64.53;100740.61;1816458;78;21111;-75
2022/05/04 02:42:40;;;;;;;8.57;5.10;;;;;;;10.34;64.78;100732.39;1816235;79;21000;-74
2022/05/04 02:45:08;;;;;;;7.93;5.07;;;;;;;10.35;64.72;100736.72;1816320;79;20988;-77
2022/05/04 02:47:34;;;;;;;8.27;5.37;;;;;;;10.36;64.71;100737.11;1804414;79;21072;-75
2022/05/04 02:50:01;;;;;;;8.37;5.10;;;;;;;10.37;64.77;100737.53;1814365;79;21016;-76
2022/05/04 02:52:30;;;;;;;8.57;5.30;;;;;;;10.39;64.72;100740.98;1816389;79;21085;-75
2022/05/04 02:54:56;;;;;;;6.57;4.83;;;;;;;10.41;64.78;100743.53;1794166;79;21007;-75
2022/05/04 02:57:23;;;;;;;7.60;5.30;;;;;;;10.40;64.80;100748.38;1776852;79;21493;-75
2022/05/04 02:59:50;;;;;;;6.87;5.03;;;;;;;10.37;64.75;100749.78;1800763;79;20996;-74
2022/05/04 03:02:29;;;;;;;7.10;5.07;;;;;;;10.37;64.69;100751.09;1801373;79;21132;-74
2022/05/04 03:05:02;;;;;;;7.10;4.40;;;;;;;10.36;65.04;100748.05;1800984;79;21009;-80
2022/05/04 03:07:30;;;;;;;8.13;5.20;;;;;;;10.33;65.15;100747.69;1780553;80;21024;-74
2022/05/04 03:09:58;;;;;;;7.70;5.00;;;;;;;10.29;65.07;100746.54;1787498;80;21278;-75
2022/05/04 03:12:26;;;;;;;6.90;5.00;;;;;;;10.24;65.07;100748.80;1783043;80;21019;-74
2022/05/04 03:14:53;;;;;;;7.73;5.30;;;;;;;10.21;65.09;100748.89;1790664;80;21077;-75
2022/05/04 03:17:21;;;;;;;7.43;5.27;;;;;;;10.19;65.39;100749.84;1782311;80;21108;-75
2022/05/04 03:19:47;;;;;;;6.77;5.13;;;;;;;10.15;65.53;100749.54;1778395;79;21023;-74
2022/05/04 03:22:15;;;;;;;7.00;5.30;;;;;;;10.13;65.85;100745.64;1770686;79;21015;-74
2022/05/04 03:24:42;;;;;;;9.13;5.00;;;;;;;10.12;66.10;100750.94;1791071;80;21104;-75
2022/05/04 03:27:09;;;;;;;7.70;5.50;;;;;;;10.11;66.22;100743.97;1790209;80;21590;-76
2022/05/04 03:29:36;;;;;;;8.63;5.47;;;;;;;10.09;66.35;100746.65;1789712;80;21089;-74
2022/05/04 03:32:04;;;;;;;7.47;5.37;;;;;;;10.09;66.39;100736.17;1783579;80;22190;-75
2022/05/04 03:34:32;;;;;;;7.43;5.20;;;;;;;10.07;66.46;100737.97;1789268;80;21005;-74
2022/05/04 03:36:59;;;;;;;7.90;5.83;;;;;;;10.05;66.47;100734.08;1788934;80;20980;-75
2022/05/04 03:39:28;;;;;;;9.00;5.27;;;;;;;10.03;66.45;100730.67;1786899;80;21028;-77
2022/05/04 03:41:56;;;;;;;8.40;5.77;;;;;;;10.01;66.46;100750.80;1791547;79;21972;-77
2022/05/04 03:44:23;;;;;;;7.73;6.17;;;;;;;9.97;66.67;100743.06;1794764;79;20981;-76
2022/05/04 03:46:52;;;;;;;8.77;5.43;;;;;;;9.96;66.74;100755.30;1777178;80;21000;-75
2022/05/04 03:49:22;;;;;;;7.62;6.10;;;;;;;9.95;66.77;100759.26;1800511;79;21020;-74
2022/05/04 03:51:49;;;;;;;9.23;5.45;;;;;;;9.94;66.75;100762.79;1782639;79;21030;-80
2022/05/04 03:54:17;;;;;;;8.53;5.57;;;;;;;9.94;66.80;100754.94;1800546;79;21979;-75
2022/05/04 03:56:51;;;;;;;8.83;5.90;;;;;;;9.94;66.96;100759.72;1802918;79;21079;-78
2022/05/04 03:59:18;;;;;;;9.40;5.70;;;;;;;9.94;67.08;100753.62;1802281;79;21011;-78
2022/05/04 04:01:45;;;;;;;9.83;5.63;;;;;;;9.94;67.16;100758.86;1793353;79;21025;-79
2022/05/04 04:04:12;;;;;;;9.37;6.00;;;;;;;9.92;67.20;100759.35;1773235;80;21098;-76
2022/05/04 04:06:39;;;;;;;8.93;5.80;;;;;;;9.92;67.22;100764.16;1773717;80;21757;-74
2022/05/04 04:09:06;;;;;;;8.17;5.67;;;;;;;9.92;67.33;100759.35;1773244;80;21026;-74
2022/05/04 04:11:33;;;;;;;8.30;6.33;;;;;;;9.92;67.49;100764.59;1773612;80;21029;-74
2022/05/04 04:14:01;;;;;;;8.67;5.77;;;;;;;9.92;67.56;100761.55;1773231;80;21010;-74
2022/05/04 04:16:29;;;;;;;8.23;5.80;;;;;;;9.91;67.38;100762.42;1773491;80;21073;-75
2022/05/04 04:18:56;;;;;;;9.50;5.90;;;;;;;9.93;67.48;100759.78;1773277;80;21111;-74
2022/05/04 04:24:09;;;;;;;9.03;6.43;;;;;;;9.97;67.50;100765.32;1773398;80;21029;-74
2022/05/04 04:26:38;;;;;;;8.27;6.00;;;;;;;10.02;67.67;100768.22;1773524;80;21543;-74
2022/05/04 04:29:06;;;;;;;9.53;6.63;;;;;;;10.05;67.75;100763.34;1773277;80;21037;-74
2022/05/04 04:31:35;;;;;;;7.50;6.13;;;;;;;10.10;68.02;100769.77;1773638;80;21085;-74
2022/05/04 04:34:03;;;;;;;8.83;6.50;;;;;;;10.13;68.04;100773.59;1773528;80;20967;-74
2022/05/04 04:36:31;;;;;;;9.13;6.73;;;;;;;10.19;68.02;100773.41;1773520;80;20987;-80
2022/05/04 04:38:58;;;;;;;11.43;7.57;;;;;;;10.25;67.96;100770.61;1773165;80;21034;-75
2022/05/04 04:41:25;;;;;;;8.00;6.47;;;;;;;10.34;67.74;100777.39;1773123;79;21085;-74
2022/05/04 04:43:52;;;;;;;11.43;7.20;;;;;;;10.41;67.67;100777.59;1764732;81;21744;-75
2022/05/04 04:46:19;;;;;;;11.87;7.40;;;;;;;10.48;67.47;100776.06;1764447;81;21051;-74
2022/05/04 04:48:46;;;;;;;11.57;7.27;;;;;;;10.57;67.16;100778.84;1764581;81;21541;-74
2022/05/04 04:51:13;;;;;;;10.63;7.00;;;;;;;10.64;67.05;100778.19;1764622;81;21034;-77
2022/05/04 04:53:40;;;;;;;10.20;6.90;;;;;;;10.68;66.81;100783.30;1764912;81;21573;-74
2022/05/04 04:56:08;;;;;;;10.97;7.10;;;;;;;10.74;66.67;100779.63;1764617;81;21193;-74
2022/05/04 04:58:35;;;;;;;10.13;7.27;;;;;;;10.79;66.25;100784.27;1764685;81;21378;-74
2022/05/04 05:01:03;;;;;;;13.07;7.47;;;;;;;10.84;66.08;100778.44;1764466;81;21080;-74
2022/05/04 05:03:30;;;;;;;9.83;7.30;;;;;;;10.90;65.82;100785.25;1773986;79;21017;-77
2022/05/04 05:05:57;;;;;;;10.83;7.27;;;;;;;10.96;65.80;100782.42;1788604;79;21044;-74
2022/05/04 05:08:25;;;;;;;12.40;7.43;;;;;;;11.03;65.75;100784.38;1796244;79;21091;-76
2022/05/04 05:10:52;;;;;;;11.10;7.93;;;;;;;11.11;65.79;100784.98;1789290;79;21506;-74
2022/05/04 05:13:19;;;;;;;9.83;7.67;;;;;;;11.19;65.58;100788.67;1812730;79;21036;-74
2022/05/04 05:18:31;;;;;;;12.63;7.97;;;;;;;11.30;65.23;100794.42;1812755;79;21079;-80
2022/05/04 05:20:59;;;;;;;14.40;8.07;;;;;;;11.35;65.15;100794.66;1812562;79;21739;-73
2022/05/04 05:23:27;;;;;;;11.27;7.57;;;;;;;11.42;65.03;100788.77;1788966;80;21446;-74
2022/05/04 05:25:54;;;;;;;9.63;7.43;;;;;;;11.50;65.19;100789.80;1812660;79;21008;-74
2022/05/04 05:28:21;;;;;;;9.60;7.30;;;;;;;11.57;64.95;100792.63;1812637;79;21012;-78
2022/05/04 05:30:48;;;;;;;12.13;8.50;;;;;;;11.63;64.89;100789.77;1789044;79;21028;-73
2022/05/04 05:33:16;;;;;;;14.13;7.80;;;;;;;11.69;64.91;100797.43;1821246;78;21488;-74
2022/05/04 05:35:43;;;;;;;11.03;7.87;;;;;;;11.78;64.64;100795.81;1812231;79;21263;-76
2022/05/04 05:38:11;;;;;;;10.13;7.43;;;;;;;11.82;64.52;100790.84;1812682;79;21076;-75
2022/05/04 05:40:38;;;;;;;12.80;8.20;;;;;;;11.87;64.22;100788.09;1808053;77;21027;-79
2022/05/04 05:43:05;;;;;;;11.57;7.90;;;;;;;11.90;64.11;100793.69;1794053;77;21080;-77
2022/05/04 05:45:33;;;;;;;12.30;8.17;;;;;;;11.95;64.11;100793.06;1817578;78;21546;-77
2022/05/04 05:48:00;;;;;;;14.87;8.80;;;;;;;11.98;64.09;100792.95;1784565;80;21086;-79
2022/05/04 05:50:27;;;;;;;11.00;7.72;;;;;;;12.02;64.15;100792.77;1786008;80;21044;-74
2022/05/04 05:52:54;;;;;;;12.53;7.90;;;;;;;12.08;63.99;100796.08;1785935;80;21648;-76
2022/05/04 05:55:22;;;;;;;12.23;7.72;;;;;;;12.10;63.90;100803.46;1816114;78;20992;-75
2022/05/04 05:57:51;;;;;;;14.23;7.83;;;;;;;12.12;63.72;100810.37;1794799;79;21104;-75
2022/05/04 06:00:18;;;;;;;11.08;8.30;;;;;;;12.13;63.59;100808.60;1818644;78;20992;-77
2022/05/04 06:02:45;;;;;;;10.77;8.30;;;;;;;12.14;63.42;100810.30;1818530;78;20988;-74
2022/05/04 06:05:12;;;;;;;10.33;7.90;;;;;;;12.13;63.52;100812.08;1818362;78;21395;-74
2022/05/04 06:07:41;;;;;;;11.63;8.03;;;;;;;12.17;63.58;100813.70;1794853;79;21036;-73
2022/05/04 06:10:09;;;;;;;13.98;8.18;;;;;;;12.23;63.50;100813.92;1827655;78;21090;-74
2022/05/04 06:12:38;;;;;;;11.43;8.23;;;;;;;12.27;63.42;100813.73;1815625;78;21004;-76
2022/05/04 06:15:08;;;;;;;12.58;8.48;;;;;;;12.32;63.50;100816.66;1770691;78;21020;-74
2022/05/04 06:17:37;;;;;;;9.33;8.20;;;;;;;12.36;63.52;100809.92;1767995;80;21089;-79
2022/05/04 06:20:07;;;;;;;10.58;8.13;;;;;;;12.43;63.46;100814.48;1768453;81;21047;-73
2022/05/04 06:22:34;;;;;;;;;;;;;;;12.46;63.19;100813.05;1770823;81;21129;-74
2022/05/04 06:25:01;;;;;;;13.27;7.50;;;;;;;12.47;63.09;100813.00;1785758;80;20137;-74
2022/05/04 06:27:29;;;;;;;13.05;8.00;;;;;;;12.48;63.03;100810.77;1790931;80;21042;-74
2022/05/04 06:35:27;;;;;;;10.85;8.20;;;;;;;12.62;63.01;100806.28;1790907;80;21966;-74
2022/05/04 06:37:54;;;;;;;14.05;7.92;;;;;;;12.69;63.04;100808.20;1790626;80;21007;-75
2022/05/04 06:40:21;;;;;;;9.20;7.47;;;;;;;12.76;62.98;100807.52;1789559;79;21008;-74
2022/05/04 06:42:48;;;;;;;11.38;8.30;;;;;;;12.84;62.93;100810.24;1822193;78;21008;-75
2022/05/04 06:45:15;;;;;;;10.65;8.00;;;;;;;12.90;62.88;100807.36;1794828;80;21026;-76
2022/05/04 06:47:42;;;;;;;10.83;7.87;;;;;;;12.98;62.79;100802.26;1825042;78;21112;-75
2022/05/04 06:50:10;;;;;;;10.60;7.17;;;;;;;13.04;62.60;100805.48;1794513;80;20904;-76
2022/05/04 06:52:38;;;;;;;11.65;7.72;;;;;;;13.14;62.71;100800.72;1820467;78;21079;-76
2022/05/04 06:55:06;;;;;;;10.60;7.40;;;;;;;13.25;62.33;100800.28;1791316;80;21010;-74
2022/05/04 06:57:34;;;;;;;10.18;7.08;;;;;;;13.32;62.16;100797.80;1819690;78;21349;-74
2022/05/04 07:00:05;;;;;;;9.40;7.00;;;;;;;13.41;61.93;100798.72;1795040;80;21190;-77
2022/05/04 07:02:35;;;;;;;11.30;7.00;;;;;;;13.53;61.75;100805.26;1794213;80;21071;-75
2022/05/04 07:05:04;;;;;;;8.78;6.80;;;;;;;13.64;61.49;100809.61;1823282;78;21075;-76
2022/05/04 07:07:31;;;;;;;11.15;6.47;;;;;;;13.75;61.18;100812.63;1787258;80;20997;-75
2022/05/04 07:09:58;;;;;;;10.55;6.03;;;;;;;13.82;60.98;100806.14;1786463;80;21040;-74
2022/05/04 07:12:26;;;;;;;8.65;6.47;;;;;;;13.94;60.64;100806.52;1786330;80;21708;-75
2022/05/04 07:14:56;;;;;;;9.15;6.30;;;;;;;14.01;60.50;100804.88;1772311;81;21131;-75
2022/05/04 07:17:25;;;;;;;10.53;6.58;;;;;;;14.13;60.29;100809.20;1818889;78;21477;-74
2022/05/04 07:19:52;;;;;;;9.50;5.70;;;;;;;14.22;60.04;100810.12;1819302;78;21040;-74
2022/05/04 07:22:19;;;;;;;10.95;5.62;;;;;;;14.33;59.78;100805.64;1819406;78;20980;-75
2022/05/04 07:24:46;;;;;;;7.45;5.55;;;;;;;14.45;59.76;100805.09;1819817;78;21680;-75
2022/05/04 07:27:13;;;;;;;7.62;5.25;;;;;;;14.58;59.02;100810.70;1819334;78;20972;-75
2022/05/04 07:29:42;;;;;;;12.10;5.62;;;;;;;14.67;58.80;100810.25;1819176;78;20973;-74
2022/05/04 07:32:09;;;;;;;9.00;5.60;;;;;;;14.80;58.35;100814.45;1819391;78;20973;-79
2022/05/04 07:34:37;;;;;;;9.33;5.72;;;;;;;14.85;57.99;100818.58;1819205;78;20984;-76
2022/05/04 07:37:05;;;;;;;9.25;5.62;;;;;;;14.95;58.05;100817.22;1819373;78;21913;-73
2022/05/04 07:42:24;;;;;;;7.62;4.87;;;;;;;15.14;57.41;100828.21;1819500;78;21572;-74
2022/05/04 07:45:11;;;;;;;8.48;4.97;;;;;;;15.25;57.50;100823.25;1800204;79;21469;-81
2022/05/04 07:47:39;;;;;;;6.65;5.08;;;;;;;15.43;57.46;100821.94;1751382;81;21031;-76
2022/05/04 07:50:09;;;;;;;7.00;4.78;;;;;;;15.57;56.91;100816.80;1772487;80;21088;-75
2022/05/04 07:52:36;;;;;;;;;;;;;;;15.68;56.60;100818.89;1774976;80;21007;-77
2022/05/04 07:55:04;;;;;;;6.80;4.72;;;;;;;15.82;55.98;100822.58;1772287;80;20141;-74
2022/05/04 07:57:32;;;;;;;5.45;4.55;;;;;;;15.91;56.11;100823.04;1770782;80;21031;-75
2022/05/04 08:05:40;;;;;;;6.58;4.20;;;;;;;16.35;55.37;100819.78;1771262;80;21021;-76
2022/05/04 08:08:08;;;;;;;7.42;3.90;;;;;;;16.49;54.81;100823.87;1772494;80;21281;-77
2022/05/04 08:10:35;;;;;;;4.62;3.20;;;;;;;16.56;54.42;100825.70;1772347;80;21050;-76
2022/05/04 08:13:02;;;;;;;7.42;3.58;;;;;;;16.70;54.08;100825.79;1775934;80;21567;-76
2022/05/04 08:15:30;;;;;;;4.28;3.50;;;;;;;16.85;53.85;100824.97;1769409;80;21102;-77
2022/05/04 08:17:58;;;;;;;4.75;3.30;;;;;;;16.99;53.21;100824.19;1770189;80;21579;-77
2022/05/04 08:20:28;;;;;;;6.83;3.30;;;;;;;17.06;52.35;100822.88;1764177;80;21068;-78
2022/05/04 08:22:58;;;;;;;8.40;3.65;;;;;;;17.10;52.31;100823.58;1773361;80;21021;-76
2022/05/04 08:25:26;;;;;;;3.45;2.67;;;;;;;17.23;52.08;100819.73;1770178;80;21072;-75
2022/05/04 08:27:54;;;;;;;4.33;2.77;;;;;;;17.33;51.67;100820.44;1770564;80;21113;-76
2022/05/04 08:30:21;;;;;;;3.98;2.80;;;;;;;17.58;51.01;100826.95;1772281;80;20999;-76
2022/05/04 08:32:49;;;;;;;5.42;2.87;;;;;;;17.58;51.01;100826.95;1769204;80;21604;-77
2022/05/04 08:35:17;;;;;;;4.87;2.83;;;;;;;17.69;50.69;100831.61;1772578;80;21085;-77
2022/05/04 08:37:44;;;;;;;5.05;2.92;;;;;;;17.89;49.88;100836.58;1772061;80;21019;-78
2022/05/04 08:40:12;;;;;;;3.60;2.55;;;;;;;17.89;49.88;100836.58;1772431;80;21262;-75
2022/05/04 08:42:42;;;;;;;5.75;2.60;;;;;;;17.96;49.28;100828.65;1767254;80;21084;-77
2022/05/04 08:45:11;;;;;;;;;;;;;;;18.10;48.98;100830.45;1771725;79;21258;-76
2022/05/04 08:47:40;;;;;;;6.87;2.67;;;;;;;18.21;48.54;100829.31;1792906;79;20189;-78
2022/05/04 08:50:17;;;;;;;4.50;2.52;;;;;;;18.36;48.64;100833.28;1815416;79;21186;-75
2022/05/04 08:52:53;;;;;;;3.25;2.37;;;;;;;18.50;48.31;100830.61;1750871;82;21174;-80
2022/05/04 08:55:22;;;;;;;4.30;2.55;;;;;;;18.61;47.89;100834.76;1771398;81;21094;-75
2022/05/04 08:57:50;;;;;;;3.95;2.40;;;;;;;18.66;47.48;100831.34;1750712;82;20992;-76
2022/05/04 09:00:18;;;;;;;3.58;2.37;;;;;;;18.70;46.89;100830.66;1771467;81;21047;-75
2022/05/04 09:02:45;;;;;;;3.72;2.22;;;;;;;18.70;46.29;100831.98;1750800;82;21536;-75
2022/05/04 09:05:29;;;;;;;4.60;2.60;;;;;;;18.76;46.21;100826.34;1771509;81;21927;-76
2022/05/04 09:07:58;;;;;;;4.33;2.08;;;;;;;18.90;45.63;100829.39;1749906;82;21059;-75
2022/05/04 09:10:34;;;;;;;4.65;2.40;;;;;;;18.85;45.18;100827.06;1771738;81;21524;-76
2022/05/04 09:13:03;;;;;;;5.78;2.40;;;;;;;18.77;44.58;100821.88;1771014;81;21003;-74
2022/05/04 09:15:33;;;;;;;3.80;2.10;;;;;;;18.72;44.39;100824.78;1771728;81;21378;-74
2022/05/04 09:18:06;;;;;;;7.03;2.72;;;;;;;18.77;44.07;100823.20;1750881;82;21157;-74
2022/05/04 09:20:52;;;;;;;6.05;3.17;;;;;;;18.89;44.39;100814.42;1771417;81;21066;-74
2022/05/04 09:23:30;;;;;;;3.15;2.20;;;;;;;19.17;45.32;100814.30;1749510;82;21502;-74
2022/05/04 09:26:05;;;;;;;3.33;2.72;;;;;;;19.45;44.86;100816.44;1771604;81;21050;-75
2022/05/04 09:28:34;;;;;;;2.33;2.10;;;;;;;19.75;44.90;100816.67;1771452;81;20996;-74
2022/05/04 09:31:07;;;;;;;3.60;2.58;;;;;;;20.00;44.23;100821.98;1815234;78;21284;-74
2022/05/04 09:33:38;;;;;;;5.80;2.52;;;;;;;20.18;43.65;100815.88;1750727;82;20936;-74
2022/05/04 09:36:09;;;;;;;2.85;2.20;;;;;;;20.31;43.23;100811.84;1781711;79;21024;-74
2022/05/04 09:46:55;;;;;;;3.42;2.15;;;;;;;21.17;42.67;100808.25;1830237;78;21509;-74
2022/05/04 09:49:30;;;;;;;2.02;1.55;;;;;;;21.32;42.32;100809.78;1797922;79;21032;-75
2022/05/04 09:51:59;;;;;;;4.75;2.10;;;;;;;21.49;41.54;100809.02;1830553;78;21020;-74
2022/05/04 09:54:28;;;;;;;5.10;1.60;;;;;;;21.54;40.43;100805.52;1781233;79;21016;-74
2022/05/04 09:57:02;;;;;;;10.50;2.30;;;;;;;21.44;40.12;100808.02;1830368;78;21122;-75
2022/05/04 09:59:36;;;;;;;5.37;2.55;;;;;;;21.53;40.30;100805.13;1798158;79;21071;-75
2022/05/04 10:02:07;;;;;;;3.83;2.80;;;;;;;21.77;40.45;100806.41;1830264;78;21433;-75
2022/05/04 10:04:34;;;;;;;10.32;2.75;;;;;;;22.00;40.41;100805.48;1798371;79;21668;-74
2022/05/04 10:07:03;;;;;;;14.07;3.20;;;;;;;22.30;40.36;100805.36;1830602;78;21036;-76
2022/05/04 10:09:32;;;;;;;5.03;2.33;;;;;;;22.63;40.25;100802.28;1831025;78;21089;-74
2022/05/04 10:12:00;;;;;;;2.72;2.35;;;;;;;22.91;39.79;100799.03;1797796;79;20960;-74
2022/05/04 10:14:29;;;;;;;5.12;2.50;;;;;;;23.19;39.24;100802.12;1830875;77;21429;-74
2022/05/04 10:17:13;;;;;;;4.83;2.10;;;;;;;23.45;38.91;100796.42;1830415;78;21533;-74
2022/05/04 10:19:49;;;;;;;6.28;2.40;;;;;;;23.60;38.41;100793.27;1798000;79;21414;-74
2022/05/04 10:22:21;;;;;;;5.25;2.80;;;;;;;23.92;38.57;100795.04;1830726;78;21160;-74
2022/05/04 10:24:53;;;;;;;2.98;2.33;;;;;;;24.10;37.84;100792.56;1782664;79;21476;-75
2022/05/04 10:27:25;;;;;;;4.12;2.55;;;;;;;24.25;37.21;100787.71;1830587;77;21445;-74
2022/05/04 10:33:05;;;;;;;4.90;2.58;;;;;;;24.31;36.32;100787.66;1798135;79;21047;-75
2022/05/04 10:35:45;;;;;;;5.25;2.15;;;;;;;23.80;35.78;100786.22;1830374;78;21770;-74
2022/05/04 10:38:29;;;;;;;3.77;2.40;;;;;;;23.42;35.56;100788.63;1797989;79;21027;-78
2022/05/04 10:41:02;;;;;;;4.37;2.30;;;;;;;23.04;35.72;100785.55;1830353;78;21035;-74
2022/05/04 10:43:50;;;;;;;3.12;2.10;;;;;;;22.67;35.23;100786.38;1797577;79;21015;-75
2022/05/04 10:46:24;;;;;;;2.83;1.70;;;;;;;22.25;35.15;100786.19;1812497;79;21375;-74
2022/05/04 10:49:05;;;;;;;4.40;1.85;;;;;;;21.96;35.19;100784.47;1812455;79;21118;-75
2022/05/04 10:51:37;;;;;;;3.12;1.40;;;;;;;;;;1812433;79;21001;-75
2022/05/04 10:54:11;;;;;;;2.77;1.37;;;;;;;21.82;34.89;100784.22;1812589;79;21546;-74
2022/05/04 10:56:45;;;;;;;3.02;1.50;;;;;;;21.86;34.86;100786.16;1788980;80;21012;-75
2022/05/04 10:59:26;;;;;;;2.37;1.50;;;;;;;21.83;34.80;100784.09;1812569;79;21060;-75
2022/05/04 11:02:07;;;;;;;2.45;1.70;;;;;;;21.92;34.57;100779.87;1784690;79;21100;-75
2022/05/04 11:04:33;;;;;;;2.37;1.50;;;;;;;21.96;34.34;100777.80;1788551;79;22113;-74
2022/05/04 11:07:05;;;;;;;3.30;1.52;;;;;;;22.17;34.40;100773.44;1821502;78;21009;-74
2022/05/04 11:09:46;;;;;;;4.17;1.60;;;;;;;22.65;34.35;100765.61;1812891;79;21507;-74
2022/05/04 11:12:13;;;;;;;3.58;1.67;;;;;;;23.15;34.24;100759.25;1789350;79;21040;-74
2022/05/04 11:14:41;;;;;;;2.95;1.70;;;;;;;23.67;34.35;100761.49;1821474;78;21107;-74
2022/05/04 11:17:14;;;;;;;2.27;2.02;;;;;;;23.94;33.87;100759.59;1812645;79;20988;-76
2022/05/04 11:19:47;;;;;;;6.30;2.83;;;;;;;24.19;33.35;100765.46;1812794;79;20993;-75
2022/05/04 11:22:16;;;;;;;2.90;1.47;;;;;;;24.50;33.35;100760.95;1812039;78;20981;-75
2022/05/04 11:24:44;;;;;;;3.10;1.20;;;;;;;24.87;32.75;100762.95;1813028;79;21012;-74
2022/05/04 11:27:17;;;;;;;4.75;2.75;;;;;;;24.99;32.28;100759.13;1812750;79;21145;-78
2022/05/04 11:29:44;;;;;;;2.85;2.27;;;;;;;24.75;32.31;100756.02;1812611;78;21009;-76
2022/05/04 11:32:19;;;;;;;3.05;2.17;;;;;;;24.49;32.07;100757.89;1812693;79;21048;-77
2022/05/04 11:34:41;;;;;;;3.27;2.50;;;;;;;24.17;31.91;100762.09;1788361;79;21052;-76
2022/05/04 11:37:11;;;;;;;3.02;2.40;;;;;;;23.82;31.76;100761.52;1783719;79;21365;-77
2022/05/04 11:39:39;;;;;;;1.75;1.57;;;;;;;23.46;31.68;100760.16;1813836;78;21103;-76
2022/05/04 11:42:08;;;;;;;2.50;1.52;;;;;;;23.14;32.02;100754.39;1785709;80;20985;-77
2022/05/04 11:44:46;;;;;;;2.67;2.00;;;;;;;22.86;32.48;100757.62;1814598;78;21040;-77
2022/05/04 11:47:09;;;;;;;2.37;1.70;;;;;;;23.13;33.20;100760.70;1817480;78;21469;-77
2022/05/04 11:49:37;;;;;;;3.17;1.80;;;;;;;23.74;33.04;100759.15;1794833;80;20972;-77
2022/05/04 11:52:05;;;;;;;2.15;1.60;;;;;;;24.23;32.95;100750.83;1827271;78;21462;-77
2022/05/04 11:54:33;;;;;;;2.35;1.70;;;;;;;24.63;32.58;100744.09;1818305;78;20952;-76
2022/05/04 11:57:00;;;;;;;4.70;1.60;;;;;;;24.97;32.46;100746.38;1807512;77;20979;-77
2022/05/04 11:59:33;;;;;;;2.95;1.57;;;;;;;25.36;32.13;100747.72;1800725;77;20972;-77
2022/05/04 12:02:00;;;;;;;2.50;1.82;;;;;;;25.84;32.11;100745.41;1786216;80;21051;-78
2022/05/04 12:04:28;;;;;;;2.10;1.62;;;;;;;26.32;31.70;100744.30;1800061;79;21832;-77
2022/05/04 12:06:58;;;;;;;2.00;1.52;;;;;;;26.46;30.48;100735.72;1797555;79;21070;-77
2022/05/04 12:09:26;;;;;;;3.65;1.50;;;;;;;26.44;30.13;100733.71;1797186;78;21523;-77
2022/05/04 12:11:54;;;;;;;2.22;1.77;;;;;;;26.46;30.11;100728.16;1797124;79;21031;-76
2022/05/04 12:14:20;;;;;;;4.17;2.00;;;;;;;26.25;29.43;100740.05;1787484;80;21042;-78